PWSweather.com
Personal Weather Stations
Station Observations
KFLSTJOH36
Aberdeen Highland Point, Saint Johns, FL 32259

Aberdeen Highland PointSaint Johns, FL 32259

Lat: 30.082981, Lon: -81.59522

Elevation: 60

Station Type: Acurite 5-in-1 Weather Sensor

High Low Average
Temperature 102.4°F39.1°F 78.3°F25.7°F 88.7°F31.5°F
Dew Point 80.3°F26.8°F 75.1°F23.9°F 77.7°F25.4°F
Winds 10.0 mph -16.1 mph - Calm Calm 1.2 mph 1.9 mph
Wind Gusts -- -- --
Humidity 91% 44% 72%
Pressure 30.23 in1023.70 in 30.15 in1021.00 in -
Precipitation 0.69 in17.50 in - -
Hour Temp Dew Point Humidity Winds Wind Gusts Pressure Precip Precip Rate Daily Precip Total
12:00 AM 82.4°F28.0°C 77.8°F25.4°C 86% Calm Calm -- 30.22 in1023.4 mb 0.00 in0.0 mm 0.00 in0.0 mm 0.00 in0.0 mm
12:10 AM 82.6°F28.1°C 77.6°F25.3°C 85% Calm Calm -- 30.22 in1023.4 mb 0.00 in0.0 mm 0.00 in0.0 mm 0.00 in0.0 mm
12:15 AM 82.4°F28.0°C 77.4°F25.2°C 85% Calm Calm -- 30.22 in1023.4 mb 0.00 in0.0 mm 0.00 in0.0 mm 0.00 in0.0 mm
12:20 AM 82.2°F27.9°C 77.3°F25.2°C 85% Calm Calm -- 30.22 in1023.4 mb 0.00 in0.0 mm 0.00 in0.0 mm 0.00 in0.0 mm
12:25 AM 82.2°F27.9°C 77.6°F25.3°C 86% Calm Calm -- 30.21 in1023.0 mb 0.00 in0.0 mm 0.00 in0.0 mm 0.00 in0.0 mm
12:30 AM 82.0°F27.8°C 77.4°F25.2°C 86% Calm Calm -- 30.22 in1023.4 mb 0.00 in0.0 mm 0.00 in0.0 mm 0.00 in0.0 mm
12:35 AM 81.7°F27.6°C 77.4°F25.2°C 87% Calm Calm -- 30.21 in1023.0 mb 0.00 in0.0 mm 0.00 in0.0 mm 0.00 in0.0 mm
12:40 AM 81.7°F27.6°C 77.1°F25.1°C 86% Calm Calm -- 30.21 in1023.0 mb 0.00 in0.0 mm 0.00 in0.0 mm 0.00 in0.0 mm
12:45 AM 81.5°F27.5°C 76.9°F24.9°C 86% Calm Calm -- 30.21 in1023.0 mb 0.00 in0.0 mm 0.00 in0.0 mm 0.00 in0.0 mm
12:50 AM 81.9°F27.7°C 77.3°F25.2°C 86% Calm Calm -- 30.21 in1023.0 mb 0.00 in0.0 mm 0.00 in0.0 mm 0.00 in0.0 mm
12:55 AM 81.3°F27.4°C 76.7°F24.8°C 86% Calm Calm -- 30.21 in1023.0 mb 0.00 in0.0 mm 0.00 in0.0 mm 0.00 in0.0 mm
01:00 AM 82.0°F27.8°C 77.4°F25.2°C 86% Calm Calm -- 30.21 in1023.0 mb 0.00 in0.0 mm 0.00 in0.0 mm 0.00 in0.0 mm
01:05 AM 82.2°F27.9°C 77.6°F25.3°C 86% Calm Calm -- 30.21 in1023.0 mb 0.00 in0.0 mm 0.00 in0.0 mm 0.00 in0.0 mm
01:10 AM 82.4°F28.0°C 77.4°F25.2°C 85% Calm Calm -- 30.21 in1023.0 mb 0.00 in0.0 mm 0.00 in0.0 mm 0.00 in0.0 mm
01:20 AM 82.4°F28.0°C 77.4°F25.2°C 85% Calm Calm -- 30.21 in1023.0 mb 0.00 in0.0 mm 0.00 in0.0 mm 0.00 in0.0 mm
01:25 AM 81.9°F27.7°C 77.3°F25.2°C 86% Calm Calm -- 30.21 in1023.0 mb 0.00 in0.0 mm 0.00 in0.0 mm 0.00 in0.0 mm
01:30 AM 82.0°F27.8°C 77.4°F25.2°C 86% Calm Calm -- 30.21 in1023.0 mb 0.00 in0.0 mm 0.00 in0.0 mm 0.00 in0.0 mm
01:35 AM 82.4°F28.0°C 77.4°F25.2°C 85% Calm Calm -- 30.21 in1023.0 mb 0.00 in0.0 mm 0.00 in0.0 mm 0.00 in0.0 mm
01:45 AM 81.7°F27.6°C 76.7°F24.8°C 85% Calm Calm -- 30.21 in1023.0 mb 0.00 in0.0 mm 0.00 in0.0 mm 0.00 in0.0 mm
01:50 AM 81.7°F27.6°C 77.1°F25.1°C 86% Calm Calm -- 30.21 in1023.0 mb 0.00 in0.0 mm 0.00 in0.0 mm 0.00 in0.0 mm
01:55 AM 81.5°F27.5°C 76.9°F24.9°C 86% Calm Calm -- 30.21 in1023.0 mb 0.00 in0.0 mm 0.00 in0.0 mm 0.00 in0.0 mm
02:00 AM 81.7°F27.6°C 77.1°F25.1°C 86% Calm Calm -- 30.21 in1023.0 mb 0.00 in0.0 mm 0.00 in0.0 mm 0.00 in0.0 mm
02:05 AM 81.1°F27.3°C 76.9°F24.9°C 87% Calm Calm -- 30.20 in1022.7 mb 0.00 in0.0 mm 0.00 in0.0 mm 0.00 in0.0 mm
02:10 AM 80.4°F26.9°C 76.5°F24.7°C 88% Calm Calm -- 30.21 in1023.0 mb 0.00 in0.0 mm 0.00 in0.0 mm 0.00 in0.0 mm
02:15 AM 80.8°F27.1°C 76.9°F24.9°C 88% Calm Calm -- 30.21 in1023.0 mb 0.00 in0.0 mm 0.00 in0.0 mm 0.00 in0.0 mm
02:20 AM 80.4°F26.9°C 76.5°F24.7°C 88% 1.0 mph WSW1.6 kmh WSW -- 30.20 in1022.7 mb 0.00 in0.0 mm 0.00 in0.0 mm 0.00 in0.0 mm
02:25 AM 81.0°F27.2°C 76.4°F24.7°C 86% Calm Calm -- 30.20 in1022.7 mb 0.00 in0.0 mm 0.00 in0.0 mm 0.00 in0.0 mm
02:30 AM 81.9°F27.7°C 76.9°F24.9°C 85% Calm Calm -- 30.20 in1022.7 mb 0.00 in0.0 mm 0.00 in0.0 mm 0.00 in0.0 mm
02:35 AM 82.0°F27.8°C 77.1°F25.1°C 85% Calm Calm -- 30.20 in1022.7 mb 0.00 in0.0 mm 0.00 in0.0 mm 0.00 in0.0 mm
02:40 AM 81.7°F27.6°C 76.7°F24.8°C 85% Calm Calm -- 30.20 in1022.7 mb 0.00 in0.0 mm 0.00 in0.0 mm 0.00 in0.0 mm
02:45 AM 81.7°F27.6°C 76.7°F24.8°C 85% Calm Calm -- 30.20 in1022.7 mb 0.00 in0.0 mm 0.00 in0.0 mm 0.00 in0.0 mm
02:50 AM 81.9°F27.7°C 76.9°F24.9°C 85% Calm Calm -- 30.20 in1022.7 mb 0.00 in0.0 mm 0.00 in0.0 mm 0.00 in0.0 mm
02:55 AM 82.0°F27.8°C 76.7°F24.8°C 84% Calm Calm -- 30.20 in1022.7 mb 0.00 in0.0 mm 0.00 in0.0 mm 0.00 in0.0 mm
03:00 AM 81.9°F27.7°C 76.5°F24.7°C 84% Calm Calm -- 30.19 in1022.4 mb 0.00 in0.0 mm 0.00 in0.0 mm 0.00 in0.0 mm
03:05 AM 81.7°F27.6°C 76.7°F24.8°C 85% Calm Calm -- 30.19 in1022.4 mb 0.00 in0.0 mm 0.00 in0.0 mm 0.00 in0.0 mm
03:10 AM 81.5°F27.5°C 76.5°F24.7°C 85% Calm Calm -- 30.19 in1022.4 mb 0.00 in0.0 mm 0.00 in0.0 mm 0.00 in0.0 mm
03:20 AM 81.7°F27.6°C 76.7°F24.8°C 85% 2.0 mph WSW3.2 kmh WSW -- 30.19 in1022.4 mb 0.00 in0.0 mm 0.00 in0.0 mm 0.00 in0.0 mm
03:25 AM 81.3°F27.4°C 76.7°F24.8°C 86% 3.0 mph SSW4.8 kmh SSW -- 30.19 in1022.4 mb 0.00 in0.0 mm 0.00 in0.0 mm 0.00 in0.0 mm
03:30 AM 80.8°F27.1°C 76.2°F24.6°C 86% Calm Calm -- 30.19 in1022.4 mb 0.00 in0.0 mm 0.00 in0.0 mm 0.00 in0.0 mm
03:35 AM 81.3°F27.4°C 76.7°F24.8°C 86% 3.0 mph WSW4.8 kmh WSW -- 30.19 in1022.4 mb 0.00 in0.0 mm 0.00 in0.0 mm 0.00 in0.0 mm
03:40 AM 80.8°F27.1°C 76.2°F24.6°C 86% Calm Calm -- 30.18 in1022.0 mb 0.00 in0.0 mm 0.00 in0.0 mm 0.00 in0.0 mm
03:45 AM 81.1°F27.3°C 76.5°F24.7°C 86% 1.0 mph W1.6 kmh W -- 30.18 in1022.0 mb 0.00 in0.0 mm 0.00 in0.0 mm 0.00 in0.0 mm
03:50 AM 81.1°F27.3°C 76.5°F24.7°C 86% Calm Calm -- 30.18 in1022.0 mb 0.00 in0.0 mm 0.00 in0.0 mm 0.00 in0.0 mm
03:55 AM 81.1°F27.3°C 76.5°F24.7°C 86% 2.0 mph W3.2 kmh W -- 30.18 in1022.0 mb 0.00 in0.0 mm 0.00 in0.0 mm 0.00 in0.0 mm
04:00 AM 81.3°F27.4°C 76.4°F24.7°C 85% Calm Calm -- 30.18 in1022.0 mb 0.00 in0.0 mm 0.00 in0.0 mm 0.00 in0.0 mm
04:05 AM 81.1°F27.3°C 76.2°F24.6°C 85% 2.0 mph SW3.2 kmh SW -- 30.19 in1022.4 mb 0.00 in0.0 mm 0.00 in0.0 mm 0.00 in0.0 mm
04:10 AM 81.5°F27.5°C 76.5°F24.7°C 85% Calm Calm -- 30.18 in1022.0 mb 0.00 in0.0 mm 0.00 in0.0 mm 0.00 in0.0 mm
04:15 AM 81.3°F27.4°C 76.4°F24.7°C 85% Calm Calm -- 30.18 in1022.0 mb 0.00 in0.0 mm 0.00 in0.0 mm 0.00 in0.0 mm
04:20 AM 81.1°F27.3°C 76.2°F24.6°C 85% Calm Calm -- 30.18 in1022.0 mb 0.00 in0.0 mm 0.00 in0.0 mm 0.00 in0.0 mm
04:25 AM 81.0°F27.2°C 76.4°F24.7°C 86% Calm Calm -- 30.18 in1022.0 mb 0.00 in0.0 mm 0.00 in0.0 mm 0.00 in0.0 mm
04:30 AM 81.0°F27.2°C 76.4°F24.7°C 86% 1.0 mph W1.6 kmh W -- 30.18 in1022.0 mb 0.00 in0.0 mm 0.00 in0.0 mm 0.00 in0.0 mm
04:35 AM 81.1°F27.3°C 76.5°F24.7°C 86% Calm Calm -- 30.18 in1022.0 mb 0.00 in0.0 mm 0.00 in0.0 mm 0.00 in0.0 mm
04:40 AM 80.8°F27.1°C 76.5°F24.7°C 87% Calm Calm -- 30.18 in1022.0 mb 0.00 in0.0 mm 0.00 in0.0 mm 0.00 in0.0 mm
04:55 AM 80.6°F27.0°C 76.4°F24.7°C 87% Calm Calm -- 30.18 in1022.0 mb 0.00 in0.0 mm 0.00 in0.0 mm 0.00 in0.0 mm
05:10 AM 80.2°F26.8°C 76.0°F24.4°C 87% Calm Calm -- 30.18 in1022.0 mb 0.00 in0.0 mm 0.00 in0.0 mm 0.00 in0.0 mm
05:15 AM 80.4°F26.9°C 76.2°F24.6°C 87% Calm Calm -- 30.18 in1022.0 mb 0.00 in0.0 mm 0.00 in0.0 mm 0.00 in0.0 mm
05:20 AM 80.2°F26.8°C 76.4°F24.7°C 88% Calm Calm -- 30.18 in1022.0 mb 0.00 in0.0 mm 0.00 in0.0 mm 0.00 in0.0 mm
05:25 AM 80.1°F26.7°C 76.2°F24.6°C 88% Calm Calm -- 30.18 in1022.0 mb 0.00 in0.0 mm 0.00 in0.0 mm 0.00 in0.0 mm
05:30 AM 79.7°F26.5°C 76.2°F24.6°C 89% Calm Calm -- 30.19 in1022.4 mb 0.00 in0.0 mm 0.00 in0.0 mm 0.00 in0.0 mm
05:35 AM 80.1°F26.7°C 76.2°F24.6°C 88% Calm Calm -- 30.18 in1022.0 mb 0.00 in0.0 mm 0.00 in0.0 mm 0.00 in0.0 mm
05:40 AM 79.5°F26.4°C 75.6°F24.2°C 88% Calm Calm -- 30.19 in1022.4 mb 0.00 in0.0 mm 0.00 in0.0 mm 0.00 in0.0 mm
05:45 AM 79.3°F26.3°C 75.8°F24.3°C 89% Calm Calm -- 30.19 in1022.4 mb 0.00 in0.0 mm 0.00 in0.0 mm 0.00 in0.0 mm
05:50 AM 79.2°F26.2°C 75.6°F24.2°C 89% Calm Calm -- 30.19 in1022.4 mb 0.00 in0.0 mm 0.00 in0.0 mm 0.00 in0.0 mm
05:55 AM 79.0°F26.1°C 75.5°F24.2°C 89% Calm Calm -- 30.19 in1022.4 mb 0.00 in0.0 mm 0.00 in0.0 mm 0.00 in0.0 mm
06:00 AM 79.2°F26.2°C 75.6°F24.2°C 89% Calm Calm -- 30.19 in1022.4 mb 0.00 in0.0 mm 0.00 in0.0 mm 0.00 in0.0 mm
06:05 AM 78.8°F26.0°C 75.3°F24.1°C 89% Calm Calm -- 30.19 in1022.4 mb 0.00 in0.0 mm 0.00 in0.0 mm 0.00 in0.0 mm
06:10 AM 78.4°F25.8°C 75.3°F24.1°C 90% Calm Calm -- 30.19 in1022.4 mb 0.00 in0.0 mm 0.00 in0.0 mm 0.00 in0.0 mm
06:20 AM 78.6°F25.9°C 75.4°F24.1°C 90% Calm Calm -- 30.19 in1022.4 mb 0.00 in0.0 mm 0.00 in0.0 mm 0.00 in0.0 mm
06:25 AM 78.6°F25.9°C 75.4°F24.1°C 90% Calm Calm -- 30.20 in1022.7 mb 0.00 in0.0 mm 0.00 in0.0 mm 0.00 in0.0 mm
06:30 AM 78.4°F25.8°C 75.3°F24.1°C 90% Calm Calm -- 30.20 in1022.7 mb 0.00 in0.0 mm 0.00 in0.0 mm 0.00 in0.0 mm
06:55 AM 78.3°F25.7°C 75.1°F23.9°C 90% Calm Calm -- 30.20 in1022.7 mb 0.00 in0.0 mm 0.00 in0.0 mm 0.00 in0.0 mm
07:00 AM 78.3°F25.7°C 75.4°F24.1°C 91% Calm Calm -- 30.20 in1022.7 mb 0.00 in0.0 mm 0.00 in0.0 mm 0.00 in0.0 mm
07:10 AM 78.3°F25.7°C 75.4°F24.1°C 91% Calm Calm -- 30.20 in1022.7 mb 0.00 in0.0 mm 0.00 in0.0 mm 0.00 in0.0 mm
07:15 AM 78.8°F26.0°C 75.9°F24.4°C 91% Calm Calm -- 30.20 in1022.7 mb 0.00 in0.0 mm 0.00 in0.0 mm 0.00 in0.0 mm
07:20 AM 78.8°F26.0°C 75.9°F24.4°C 91% Calm Calm -- 30.21 in1023.0 mb 0.00 in0.0 mm 0.00 in0.0 mm 0.00 in0.0 mm
07:25 AM 79.5°F26.4°C 76.7°F24.8°C 91% Calm Calm -- 30.21 in1023.0 mb 0.00 in0.0 mm 0.00 in0.0 mm 0.00 in0.0 mm
07:30 AM 80.1°F26.7°C 76.9°F24.9°C 90% Calm Calm -- 30.21 in1023.0 mb 0.00 in0.0 mm 0.00 in0.0 mm 0.00 in0.0 mm
07:35 AM 80.8°F27.1°C 77.2°F25.1°C 89% Calm Calm -- 30.21 in1023.0 mb 0.00 in0.0 mm 0.00 in0.0 mm 0.00 in0.0 mm
07:40 AM 81.7°F27.6°C 77.8°F25.4°C 88% Calm Calm -- 30.21 in1023.0 mb 0.00 in0.0 mm 0.00 in0.0 mm 0.00 in0.0 mm
07:45 AM 82.9°F28.3°C 78.3°F25.7°C 86% Calm Calm -- 30.21 in1023.0 mb 0.00 in0.0 mm 0.00 in0.0 mm 0.00 in0.0 mm
07:50 AM 84.0°F28.9°C 78.7°F25.9°C 84% Calm Calm -- 30.21 in1023.0 mb 0.00 in0.0 mm 0.00 in0.0 mm 0.00 in0.0 mm
07:55 AM 85.5°F29.7°C 79.3°F26.3°C 82% Calm Calm -- 30.21 in1023.0 mb 0.00 in0.0 mm 0.00 in0.0 mm 0.00 in0.0 mm
08:00 AM 86.2°F30.1°C 79.7°F26.5°C 81% Calm Calm -- 30.21 in1023.0 mb 0.00 in0.0 mm 0.00 in0.0 mm 0.00 in0.0 mm
08:05 AM 87.1°F30.6°C 80.2°F26.8°C 80% Calm Calm -- 30.21 in1023.0 mb 0.00 in0.0 mm 0.00 in0.0 mm 0.00 in0.0 mm
08:10 AM 87.6°F30.9°C 79.5°F26.4°C 77% 1.0 mph WSW1.6 kmh WSW -- 30.21 in1023.0 mb 0.00 in0.0 mm 0.00 in0.0 mm 0.00 in0.0 mm
08:15 AM 88.0°F31.1°C 79.5°F26.4°C 76% 1.0 mph WSW1.6 kmh WSW -- 30.21 in1023.0 mb 0.00 in0.0 mm 0.00 in0.0 mm 0.00 in0.0 mm
08:20 AM 88.2°F31.2°C 79.3°F26.3°C 75% 1.0 mph W1.6 kmh W -- 30.21 in1023.0 mb 0.00 in0.0 mm 0.00 in0.0 mm 0.00 in0.0 mm
08:25 AM 88.5°F31.4°C 79.2°F26.2°C 74% Calm Calm -- 30.21 in1023.0 mb 0.00 in0.0 mm 0.00 in0.0 mm 0.00 in0.0 mm
08:30 AM 89.2°F31.8°C 79.5°F26.4°C 73% 2.0 mph W3.2 kmh W -- 30.21 in1023.0 mb 0.00 in0.0 mm 0.00 in0.0 mm 0.00 in0.0 mm
08:35 AM 90.1°F32.3°C 79.5°F26.4°C 71% 1.0 mph W1.6 kmh W -- 30.21 in1023.0 mb 0.00 in0.0 mm 0.00 in0.0 mm 0.00 in0.0 mm
08:40 AM 90.7°F32.6°C 79.1°F26.2°C 69% Calm Calm -- 30.21 in1023.0 mb 0.00 in0.0 mm 0.00 in0.0 mm 0.00 in0.0 mm
08:45 AM 91.4°F33.0°C 79.8°F26.6°C 69% Calm Calm -- 30.21 in1023.0 mb 0.00 in0.0 mm 0.00 in0.0 mm 0.00 in0.0 mm
08:50 AM 91.9°F33.3°C 79.5°F26.4°C 67% 2.0 mph W3.2 kmh W -- 30.21 in1023.0 mb 0.00 in0.0 mm 0.00 in0.0 mm 0.00 in0.0 mm
08:55 AM 91.0°F32.8°C 79.1°F26.2°C 68% 2.0 mph SW3.2 kmh SW -- 30.21 in1023.0 mb 0.00 in0.0 mm 0.00 in0.0 mm 0.00 in0.0 mm
09:00 AM 93.2°F34.0°C 80.2°F26.8°C 66% Calm Calm -- 30.21 in1023.0 mb 0.00 in0.0 mm 0.00 in0.0 mm 0.00 in0.0 mm
09:05 AM 92.7°F33.7°C 78.8°F26.0°C 64% 2.0 mph W3.2 kmh W -- 30.21 in1023.0 mb 0.00 in0.0 mm 0.00 in0.0 mm 0.00 in0.0 mm
09:10 AM 93.2°F34.0°C 78.8°F26.0°C 63% Calm Calm -- 30.22 in1023.4 mb 0.00 in0.0 mm 0.00 in0.0 mm 0.00 in0.0 mm
09:15 AM 93.7°F34.3°C 79.3°F26.3°C 63% 4.0 mph W6.4 kmh W -- 30.22 in1023.4 mb 0.00 in0.0 mm 0.00 in0.0 mm 0.00 in0.0 mm
09:20 AM 92.8°F33.8°C 78.9°F26.1°C 64% 3.0 mph SSW4.8 kmh SSW -- 30.22 in1023.4 mb 0.00 in0.0 mm 0.00 in0.0 mm 0.00 in0.0 mm
09:25 AM 92.8°F33.8°C 78.0°F25.6°C 62% 2.0 mph W3.2 kmh W -- 30.22 in1023.4 mb 0.00 in0.0 mm 0.00 in0.0 mm 0.00 in0.0 mm
09:30 AM 95.2°F35.1°C 77.6°F25.3°C 57% 1.0 mph SSW1.6 kmh SSW -- 30.22 in1023.4 mb 0.00 in0.0 mm 0.00 in0.0 mm 0.00 in0.0 mm
09:35 AM 95.7°F35.4°C 78.7°F25.9°C 58% 1.0 mph WSW1.6 kmh WSW -- 30.22 in1023.4 mb 0.00 in0.0 mm 0.00 in0.0 mm 0.00 in0.0 mm
09:40 AM 95.5°F35.3°C 78.5°F25.8°C 58% 1.0 mph W1.6 kmh W -- 30.22 in1023.4 mb 0.00 in0.0 mm 0.00 in0.0 mm 0.00 in0.0 mm
09:45 AM 96.3°F35.7°C 78.7°F25.9°C 57% 2.0 mph W3.2 kmh W -- 30.22 in1023.4 mb 0.00 in0.0 mm 0.00 in0.0 mm 0.00 in0.0 mm
09:50 AM 96.4°F35.8°C 78.8°F26.0°C 57% 4.0 mph SW6.4 kmh SW -- 30.22 in1023.4 mb 0.00 in0.0 mm 0.00 in0.0 mm 0.00 in0.0 mm
09:55 AM 97.2°F36.2°C 78.4°F25.8°C 55% 2.0 mph W3.2 kmh W -- 30.22 in1023.4 mb 0.00 in0.0 mm 0.00 in0.0 mm 0.00 in0.0 mm
10:00 AM 98.2°F36.8°C 79.4°F26.3°C 55% 1.0 mph SSW1.6 kmh SSW -- 30.22 in1023.4 mb 0.00 in0.0 mm 0.00 in0.0 mm 0.00 in0.0 mm
10:05 AM 92.8°F33.8°C 77.5°F25.3°C 61% 3.0 mph W4.8 kmh W -- 30.22 in1023.4 mb 0.00 in0.0 mm 0.00 in0.0 mm 0.00 in0.0 mm
10:10 AM 91.6°F33.1°C 77.3°F25.2°C 63% 2.0 mph W3.2 kmh W -- 30.22 in1023.4 mb 0.00 in0.0 mm 0.00 in0.0 mm 0.00 in0.0 mm
10:15 AM 92.5°F33.6°C 77.1°F25.1°C 61% 2.0 mph SW3.2 kmh SW -- 30.22 in1023.4 mb 0.00 in0.0 mm 0.00 in0.0 mm 0.00 in0.0 mm
10:20 AM 92.3°F33.5°C 78.4°F25.8°C 64% 2.0 mph W3.2 kmh W -- 30.22 in1023.4 mb 0.00 in0.0 mm 0.00 in0.0 mm 0.00 in0.0 mm
10:25 AM 92.7°F33.7°C 77.8°F25.4°C 62% 2.0 mph W3.2 kmh W -- 30.22 in1023.4 mb 0.00 in0.0 mm 0.00 in0.0 mm 0.00 in0.0 mm
10:30 AM 92.5°F33.6°C 78.1°F25.6°C 63% 2.0 mph WNW3.2 kmh WNW -- 30.22 in1023.4 mb 0.00 in0.0 mm 0.00 in0.0 mm 0.00 in0.0 mm
10:35 AM 93.0°F33.9°C 78.1°F25.6°C 62% 2.0 mph NW3.2 kmh NW -- 30.22 in1023.4 mb 0.00 in0.0 mm 0.00 in0.0 mm 0.00 in0.0 mm
10:40 AM 94.1°F34.5°C 78.2°F25.7°C 60% 3.0 mph WNW4.8 kmh WNW -- 30.23 in1023.7 mb 0.00 in0.0 mm 0.00 in0.0 mm 0.00 in0.0 mm
10:45 AM 93.4°F34.1°C 78.0°F25.6°C 61% 2.0 mph NNW3.2 kmh NNW -- 30.22 in1023.4 mb 0.00 in0.0 mm 0.00 in0.0 mm 0.00 in0.0 mm
10:50 AM 93.9°F34.4°C 77.5°F25.3°C 59% 2.0 mph W3.2 kmh W -- 30.22 in1023.4 mb 0.00 in0.0 mm 0.00 in0.0 mm 0.00 in0.0 mm
10:55 AM 94.6°F34.8°C 77.7°F25.4°C 58% 2.0 mph WSW3.2 kmh WSW -- 30.22 in1023.4 mb 0.00 in0.0 mm 0.00 in0.0 mm 0.00 in0.0 mm
11:00 AM 94.5°F34.7°C 78.0°F25.6°C 59% 4.0 mph SW6.4 kmh SW -- 30.23 in1023.7 mb 0.00 in0.0 mm 0.00 in0.0 mm 0.00 in0.0 mm
11:05 AM 95.4°F35.2°C 77.8°F25.4°C 57% 3.0 mph SW4.8 kmh SW -- 30.22 in1023.4 mb 0.00 in0.0 mm 0.00 in0.0 mm 0.00 in0.0 mm
11:10 AM 94.8°F34.9°C 79.4°F26.3°C 61% 2.0 mph W3.2 kmh W -- 30.22 in1023.4 mb 0.00 in0.0 mm 0.00 in0.0 mm 0.00 in0.0 mm
11:15 AM 94.8°F34.9°C 77.3°F25.2°C 57% 4.0 mph SSW6.4 kmh SSW -- 30.22 in1023.4 mb 0.00 in0.0 mm 0.00 in0.0 mm 0.00 in0.0 mm
11:20 AM 95.5°F35.3°C 79.0°F26.1°C 59% 2.0 mph WNW3.2 kmh WNW -- 30.23 in1023.7 mb 0.00 in0.0 mm 0.00 in0.0 mm 0.00 in0.0 mm
11:25 AM 95.4°F35.2°C 78.9°F26.1°C 59% 1.0 mph NW1.6 kmh NW -- 30.23 in1023.7 mb 0.00 in0.0 mm 0.00 in0.0 mm 0.00 in0.0 mm
11:30 AM 96.1°F35.6°C 77.4°F25.2°C 55% 2.0 mph SW3.2 kmh SW -- 30.23 in1023.7 mb 0.00 in0.0 mm 0.00 in0.0 mm 0.00 in0.0 mm
11:35 AM 96.3°F35.7°C 78.7°F25.9°C 57% 2.0 mph WNW3.2 kmh WNW -- 30.23 in1023.7 mb 0.00 in0.0 mm 0.00 in0.0 mm 0.00 in0.0 mm
11:40 AM 96.3°F35.7°C 77.6°F25.3°C 55% 2.0 mph W3.2 kmh W -- 30.23 in1023.7 mb 0.00 in0.0 mm 0.00 in0.0 mm 0.00 in0.0 mm
11:45 AM 96.4°F35.8°C 78.8°F26.0°C 57% 2.0 mph SW3.2 kmh SW -- 30.23 in1023.7 mb 0.00 in0.0 mm 0.00 in0.0 mm 0.00 in0.0 mm
11:50 AM 96.6°F35.9°C 77.9°F25.5°C 55% 1.0 mph WNW1.6 kmh WNW -- 30.22 in1023.4 mb 0.00 in0.0 mm 0.00 in0.0 mm 0.00 in0.0 mm
11:55 AM 96.6°F35.9°C 77.4°F25.2°C 54% 5.0 mph WSW8.0 kmh WSW -- 30.22 in1023.4 mb 0.00 in0.0 mm 0.00 in0.0 mm 0.00 in0.0 mm
12:00 PM 96.4°F35.8°C 77.7°F25.4°C 55% 1.0 mph NE1.6 kmh NE -- 30.22 in1023.4 mb 0.00 in0.0 mm 0.00 in0.0 mm 0.00 in0.0 mm
12:05 PM 98.2°F36.8°C 79.4°F26.3°C 55% 2.0 mph W3.2 kmh W -- 30.22 in1023.4 mb 0.00 in0.0 mm 0.00 in0.0 mm 0.00 in0.0 mm
12:10 PM 97.7°F36.5°C 77.8°F25.4°C 53% 2.0 mph NE3.2 kmh NE -- 30.22 in1023.4 mb 0.00 in0.0 mm 0.00 in0.0 mm 0.00 in0.0 mm
12:15 PM 97.0°F36.1°C 78.3°F25.7°C 55% 2.0 mph NW3.2 kmh NW -- 30.22 in1023.4 mb 0.00 in0.0 mm 0.00 in0.0 mm 0.00 in0.0 mm
12:20 PM 98.4°F36.9°C 77.9°F25.5°C 52% 3.0 mph W4.8 kmh W -- 30.22 in1023.4 mb 0.00 in0.0 mm 0.00 in0.0 mm 0.00 in0.0 mm
12:25 PM 98.4°F36.9°C 77.9°F25.5°C 52% 3.0 mph NNE4.8 kmh NNE -- 30.22 in1023.4 mb 0.00 in0.0 mm 0.00 in0.0 mm 0.00 in0.0 mm
12:30 PM 99.1°F37.3°C 77.4°F25.2°C 50% 2.0 mph ESE3.2 kmh ESE -- 30.22 in1023.4 mb 0.00 in0.0 mm 0.00 in0.0 mm 0.00 in0.0 mm
12:35 PM 98.1°F36.7°C 77.6°F25.3°C 52% 3.0 mph SW4.8 kmh SW -- 30.22 in1023.4 mb 0.00 in0.0 mm 0.00 in0.0 mm 0.00 in0.0 mm
12:40 PM 97.5°F36.4°C 78.2°F25.7°C 54% 3.0 mph WNW4.8 kmh WNW -- 30.22 in1023.4 mb 0.00 in0.0 mm 0.00 in0.0 mm 0.00 in0.0 mm
12:45 PM 98.8°F37.1°C 78.2°F25.7°C 52% 2.0 mph W3.2 kmh W -- 30.21 in1023.0 mb 0.00 in0.0 mm 0.00 in0.0 mm 0.00 in0.0 mm
12:50 PM 98.4°F36.9°C 77.9°F25.5°C 52% 3.0 mph NNW4.8 kmh NNW -- 30.21 in1023.0 mb 0.00 in0.0 mm 0.00 in0.0 mm 0.00 in0.0 mm
12:55 PM 98.2°F36.8°C 78.3°F25.7°C 53% 2.0 mph WNW3.2 kmh WNW -- 30.21 in1023.0 mb 0.00 in0.0 mm 0.00 in0.0 mm 0.00 in0.0 mm
01:00 PM 98.6°F37.0°C 78.6°F25.9°C 53% 2.0 mph W3.2 kmh W -- 30.21 in1023.0 mb 0.00 in0.0 mm 0.00 in0.0 mm 0.00 in0.0 mm
01:05 PM 99.0°F37.2°C 77.8°F25.4°C 51% 2.0 mph NW3.2 kmh NW -- 30.21 in1023.0 mb 0.00 in0.0 mm 0.00 in0.0 mm 0.00 in0.0 mm
01:10 PM 97.9°F36.6°C 76.2°F24.6°C 50% 2.0 mph E3.2 kmh E -- 30.21 in1023.0 mb 0.00 in0.0 mm 0.00 in0.0 mm 0.00 in0.0 mm
01:15 PM 98.4°F36.9°C 77.3°F25.2°C 51% 1.0 mph NNE1.6 kmh NNE -- 30.21 in1023.0 mb 0.00 in0.0 mm 0.00 in0.0 mm 0.00 in0.0 mm
01:20 PM 99.5°F37.5°C 77.1°F25.1°C 49% 2.0 mph NW3.2 kmh NW -- 30.21 in1023.0 mb 0.00 in0.0 mm 0.00 in0.0 mm 0.00 in0.0 mm
01:25 PM 99.1°F37.3°C 78.6°F25.9°C 52% 2.0 mph WNW3.2 kmh WNW -- 30.21 in1023.0 mb 0.00 in0.0 mm 0.00 in0.0 mm 0.00 in0.0 mm
01:30 PM 100.2°F37.9°C 77.2°F25.1°C 48% 2.0 mph NNW3.2 kmh NNW -- 30.21 in1023.0 mb 0.00 in0.0 mm 0.00 in0.0 mm 0.00 in0.0 mm
01:35 PM 99.9°F37.7°C 76.8°F24.9°C 48% 3.0 mph WNW4.8 kmh WNW -- 30.21 in1023.0 mb 0.00 in0.0 mm 0.00 in0.0 mm 0.00 in0.0 mm
01:40 PM 101.3°F38.5°C 76.9°F24.9°C 46% 2.0 mph 3.2 kmh -- 30.21 in1023.0 mb 0.00 in0.0 mm 0.00 in0.0 mm 0.00 in0.0 mm
01:45 PM 100.8°F38.2°C 77.7°F25.4°C 48% 2.0 mph NNE3.2 kmh NNE -- 30.21 in1023.0 mb 0.00 in0.0 mm 0.00 in0.0 mm 0.00 in0.0 mm
01:50 PM 99.9°F37.7°C 77.5°F25.3°C 49% 2.0 mph WNW3.2 kmh WNW -- 30.20 in1022.7 mb 0.00 in0.0 mm 0.00 in0.0 mm 0.00 in0.0 mm
01:55 PM 97.0°F36.1°C 77.7°F25.4°C 54% 2.0 mph W3.2 kmh W -- 30.20 in1022.7 mb 0.00 in0.0 mm 0.00 in0.0 mm 0.00 in0.0 mm
02:00 PM 99.9°F37.7°C 78.1°F25.6°C 50% 3.0 mph W4.8 kmh W -- 30.20 in1022.7 mb 0.00 in0.0 mm 0.00 in0.0 mm 0.00 in0.0 mm
02:05 PM 99.7°F37.6°C 76.0°F24.4°C 47% 2.0 mph NNE3.2 kmh NNE -- 30.20 in1022.7 mb 0.00 in0.0 mm 0.00 in0.0 mm 0.00 in0.0 mm
02:10 PM 99.5°F37.5°C 75.9°F24.4°C 47% 2.0 mph W3.2 kmh W -- 30.20 in1022.7 mb 0.00 in0.0 mm 0.00 in0.0 mm 0.00 in0.0 mm
02:15 PM 100.8°F38.2°C 77.0°F25.0°C 47% 2.0 mph WNW3.2 kmh WNW -- 30.20 in1022.7 mb 0.00 in0.0 mm 0.00 in0.0 mm 0.00 in0.0 mm
02:20 PM 100.8°F38.2°C 77.0°F25.0°C 47% 4.0 mph SW6.4 kmh SW -- 30.20 in1022.7 mb 0.00 in0.0 mm 0.00 in0.0 mm 0.00 in0.0 mm
02:25 PM 101.5°F38.6°C 78.3°F25.7°C 48% 3.0 mph WNW4.8 kmh WNW -- 30.20 in1022.7 mb 0.00 in0.0 mm 0.00 in0.0 mm 0.00 in0.0 mm
02:30 PM 101.7°F38.7°C 78.5°F25.8°C 48% 4.0 mph WNW6.4 kmh WNW -- 30.19 in1022.4 mb 0.00 in0.0 mm 0.00 in0.0 mm 0.00 in0.0 mm
02:35 PM 102.2°F39.0°C 77.0°F25.0°C 45% 2.0 mph SW3.2 kmh SW -- 30.19 in1022.4 mb 0.00 in0.0 mm 0.00 in0.0 mm 0.00 in0.0 mm
02:40 PM 101.8°F38.8°C 78.0°F25.6°C 47% 3.0 mph W4.8 kmh W -- 30.19 in1022.4 mb 0.00 in0.0 mm 0.00 in0.0 mm 0.00 in0.0 mm
02:45 PM 102.0°F38.9°C 78.2°F25.7°C 47% 3.0 mph W4.8 kmh W -- 30.19 in1022.4 mb 0.00 in0.0 mm 0.00 in0.0 mm 0.00 in0.0 mm
02:50 PM 102.4°F39.1°C 77.9°F25.5°C 46% 3.0 mph WNW4.8 kmh WNW -- 30.19 in1022.4 mb 0.00 in0.0 mm 0.00 in0.0 mm 0.00 in0.0 mm
02:55 PM 100.8°F38.2°C 77.7°F25.4°C 48% 4.0 mph W6.4 kmh W -- 30.19 in1022.4 mb 0.00 in0.0 mm 0.00 in0.0 mm 0.00 in0.0 mm
03:00 PM 99.1°F37.3°C 76.2°F24.6°C 48% 3.0 mph W4.8 kmh W -- 30.19 in1022.4 mb 0.00 in0.0 mm 0.00 in0.0 mm 0.00 in0.0 mm
03:05 PM 99.9°F37.7°C 77.5°F25.3°C 49% 2.0 mph NNE3.2 kmh NNE -- 30.18 in1022.0 mb 0.00 in0.0 mm 0.00 in0.0 mm 0.00 in0.0 mm
03:10 PM 98.8°F37.1°C 75.2°F24.0°C 47% 2.0 mph NNW3.2 kmh NNW -- 30.18 in1022.0 mb 0.00 in0.0 mm 0.00 in0.0 mm 0.00 in0.0 mm
03:15 PM 100.4°F38.0°C 76.1°F24.5°C 46% 2.0 mph W3.2 kmh W -- 30.18 in1022.0 mb 0.00 in0.0 mm 0.00 in0.0 mm 0.00 in0.0 mm
03:20 PM 101.3°F38.5°C 76.2°F24.6°C 45% 2.0 mph W3.2 kmh W -- 30.18 in1022.0 mb 0.00 in0.0 mm 0.00 in0.0 mm 0.00 in0.0 mm
03:25 PM 100.8°F38.2°C 75.1°F23.9°C 44% 1.0 mph WNW1.6 kmh WNW -- 30.18 in1022.0 mb 0.00 in0.0 mm 0.00 in0.0 mm 0.00 in0.0 mm
03:30 PM 99.0°F37.2°C 76.0°F24.4°C 48% Calm Calm -- 30.18 in1022.0 mb 0.00 in0.0 mm 0.00 in0.0 mm 0.00 in0.0 mm
03:35 PM 100.0°F37.8°C 77.0°F25.0°C 48% 1.0 mph WSW1.6 kmh WSW -- 30.18 in1022.0 mb 0.00 in0.0 mm 0.00 in0.0 mm 0.00 in0.0 mm
03:40 PM 99.1°F37.3°C 77.4°F25.2°C 50% 6.0 mph ESE9.7 kmh ESE -- 30.18 in1022.0 mb 0.00 in0.0 mm 0.00 in0.0 mm 0.00 in0.0 mm
03:45 PM 95.4°F35.2°C 77.3°F25.2°C 56% 6.0 mph SW9.7 kmh SW -- 30.18 in1022.0 mb 0.00 in0.0 mm 0.00 in0.0 mm 0.00 in0.0 mm
03:50 PM 94.1°F34.5°C 76.6°F24.8°C 57% 2.0 mph W3.2 kmh W -- 30.18 in1022.0 mb 0.00 in0.0 mm 0.00 in0.0 mm 0.00 in0.0 mm
03:55 PM 94.8°F34.9°C 77.3°F25.2°C 57% 7.0 mph ENE11.3 kmh ENE -- 30.18 in1022.0 mb 0.00 in0.0 mm 0.00 in0.0 mm 0.00 in0.0 mm
04:00 PM 88.9°F31.6°C 79.1°F26.2°C 73% 4.0 mph SE6.4 kmh SE -- 30.18 in1022.0 mb 0.00 in0.0 mm 0.00 in0.0 mm 0.00 in0.0 mm
04:05 PM 86.2°F30.1°C 78.5°F25.8°C 78% 10.0 mph SSE16.1 kmh SSE -- 30.19 in1022.4 mb 0.02 in0.5 mm 0.24 in6.1 mm 0.02 in0.5 mm
04:10 PM 85.8°F29.9°C 77.0°F25.0°C 75% 4.0 mph ESE6.4 kmh ESE -- 30.19 in1022.4 mb 0.05 in1.3 mm 0.36 in9.1 mm 0.05 in1.3 mm
04:15 PM 84.7°F29.3°C 75.9°F24.4°C 75% 1.0 mph ENE1.6 kmh ENE -- 30.19 in1022.4 mb 0.06 in1.5 mm 0.12 in3.0 mm 0.06 in1.5 mm
04:20 PM 83.1°F28.4°C 78.1°F25.6°C 85% 3.0 mph ESE4.8 kmh ESE -- 30.18 in1022.0 mb 0.06 in1.5 mm 0.00 in0.0 mm 0.06 in1.5 mm
04:25 PM 82.6°F28.1°C 78.3°F25.7°C 87% 1.0 mph SE1.6 kmh SE -- 30.17 in1021.7 mb 0.06 in1.5 mm 0.00 in0.0 mm 0.06 in1.5 mm
04:30 PM 83.7°F28.7°C 77.9°F25.5°C 83% Calm Calm -- 30.17 in1021.7 mb 0.06 in1.5 mm 0.00 in0.0 mm 0.06 in1.5 mm
04:35 PM 83.3°F28.5°C 78.0°F25.6°C 84% 2.0 mph ENE3.2 kmh ENE -- 30.17 in1021.7 mb 0.06 in1.5 mm 0.00 in0.0 mm 0.06 in1.5 mm
04:40 PM 82.9°F28.3°C 78.3°F25.7°C 86% Calm Calm -- 30.17 in1021.7 mb 0.06 in1.5 mm 0.00 in0.0 mm 0.06 in1.5 mm
04:45 PM 84.0°F28.9°C 78.7°F25.9°C 84% 1.0 mph ENE1.6 kmh ENE -- 30.17 in1021.7 mb 0.06 in1.5 mm 0.00 in0.0 mm 0.06 in1.5 mm
04:50 PM 84.7°F29.3°C 79.0°F26.1°C 83% 2.0 mph ESE3.2 kmh ESE -- 30.17 in1021.7 mb 0.06 in1.5 mm 0.00 in0.0 mm 0.06 in1.5 mm
04:55 PM 85.3°F29.6°C 78.0°F25.6°C 79% 2.0 mph E3.2 kmh E -- 30.17 in1021.7 mb 0.06 in1.5 mm 0.00 in0.0 mm 0.06 in1.5 mm
05:00 PM 85.8°F29.9°C 79.3°F26.3°C 81% 2.0 mph E3.2 kmh E -- 30.16 in1021.3 mb 0.06 in1.5 mm 0.00 in0.0 mm 0.06 in1.5 mm
05:05 PM 86.7°F30.4°C 78.7°F25.9°C 77% 2.0 mph ESE3.2 kmh ESE -- 30.16 in1021.3 mb 0.01 in0.3 mm 0.00 in0.0 mm 0.06 in1.5 mm
05:10 PM 87.8°F31.0°C 79.7°F26.5°C 77% 2.0 mph ENE3.2 kmh ENE -- 30.16 in1021.3 mb 0.01 in0.3 mm 0.00 in0.0 mm 0.06 in1.5 mm
05:15 PM 89.4°F31.9°C 79.6°F26.4°C 73% 1.0 mph SE1.6 kmh SE -- 30.16 in1021.3 mb 0.00 in0.0 mm 0.00 in0.0 mm 0.06 in1.5 mm
05:20 PM 90.7°F32.6°C 80.0°F26.7°C 71% 2.0 mph SE3.2 kmh SE -- 30.16 in1021.3 mb 0.00 in0.0 mm 0.00 in0.0 mm 0.06 in1.5 mm
05:25 PM 91.6°F33.1°C 79.6°F26.4°C 68% 2.0 mph ENE3.2 kmh ENE -- 30.16 in1021.3 mb 0.00 in0.0 mm 0.00 in0.0 mm 0.06 in1.5 mm
05:30 PM 92.1°F33.4°C 78.7°F25.9°C 65% 2.0 mph ESE3.2 kmh ESE -- 30.16 in1021.3 mb 0.00 in0.0 mm 0.00 in0.0 mm 0.06 in1.5 mm
05:35 PM 92.8°F33.8°C 79.4°F26.3°C 65% 4.0 mph ESE6.4 kmh ESE -- 30.16 in1021.3 mb 0.00 in0.0 mm 0.00 in0.0 mm 0.06 in1.5 mm
05:40 PM 93.2°F34.0°C 80.2°F26.8°C 66% 6.0 mph SSE9.7 kmh SSE -- 30.16 in1021.3 mb 0.00 in0.0 mm 0.00 in0.0 mm 0.06 in1.5 mm
05:45 PM 93.7°F34.3°C 80.3°F26.8°C 65% 3.0 mph ESE4.8 kmh ESE -- 30.16 in1021.3 mb 0.00 in0.0 mm 0.00 in0.0 mm 0.06 in1.5 mm
05:50 PM 93.7°F34.3°C 79.3°F26.3°C 63% 2.0 mph SE3.2 kmh SE -- 30.16 in1021.3 mb 0.00 in0.0 mm 0.00 in0.0 mm 0.06 in1.5 mm
05:55 PM 95.4°F35.2°C 79.9°F26.6°C 61% 5.0 mph ESE8.0 kmh ESE -- 30.16 in1021.3 mb 0.00 in0.0 mm 0.00 in0.0 mm 0.06 in1.5 mm
06:00 PM 94.6°F34.8°C 78.7°F25.9°C 60% 3.0 mph E4.8 kmh E -- 30.16 in1021.3 mb 0.00 in0.0 mm 0.00 in0.0 mm 0.06 in1.5 mm
06:05 PM 95.2°F35.1°C 79.2°F26.2°C 60% 3.0 mph ESE4.8 kmh ESE -- 30.16 in1021.3 mb 0.00 in0.0 mm 0.00 in0.0 mm 0.06 in1.5 mm
06:10 PM 95.2°F35.1°C 78.7°F25.9°C 59% 2.0 mph S3.2 kmh S -- 30.16 in1021.3 mb 0.00 in0.0 mm 0.00 in0.0 mm 0.06 in1.5 mm
06:15 PM 95.0°F35.0°C 78.5°F25.8°C 59% 2.0 mph ESE3.2 kmh ESE -- 30.16 in1021.3 mb 0.00 in0.0 mm 0.00 in0.0 mm 0.06 in1.5 mm
06:20 PM 94.8°F34.9°C 78.3°F25.7°C 59% 3.0 mph S4.8 kmh S -- 30.15 in1021.0 mb 0.00 in0.0 mm 0.00 in0.0 mm 0.06 in1.5 mm
06:25 PM 94.5°F34.7°C 79.0°F26.1°C 61% 2.0 mph W3.2 kmh W -- 30.16 in1021.3 mb 0.00 in0.0 mm 0.00 in0.0 mm 0.06 in1.5 mm
06:30 PM 94.3°F34.6°C 78.8°F26.0°C 61% 1.0 mph SE1.6 kmh SE -- 30.16 in1021.3 mb 0.00 in0.0 mm 0.00 in0.0 mm 0.06 in1.5 mm
06:35 PM 94.1°F34.5°C 78.7°F25.9°C 61% 1.0 mph SSW1.6 kmh SSW -- 30.16 in1021.3 mb 0.00 in0.0 mm 0.00 in0.0 mm 0.06 in1.5 mm
06:40 PM 93.6°F34.2°C 78.7°F25.9°C 62% Calm Calm -- 30.16 in1021.3 mb 0.00 in0.0 mm 0.00 in0.0 mm 0.06 in1.5 mm
06:45 PM 93.2°F34.0°C 79.7°F26.5°C 65% Calm Calm -- 30.17 in1021.7 mb 0.00 in0.0 mm 0.00 in0.0 mm 0.06 in1.5 mm
06:50 PM 92.7°F33.7°C 79.7°F26.5°C 66% Calm Calm -- 30.17 in1021.7 mb 0.00 in0.0 mm 0.00 in0.0 mm 0.06 in1.5 mm
06:55 PM 92.1°F33.4°C 79.2°F26.2°C 66% 2.0 mph SW3.2 kmh SW -- 30.17 in1021.7 mb 0.00 in0.0 mm 0.00 in0.0 mm 0.06 in1.5 mm
07:00 PM 91.8°F33.2°C 79.3°F26.3°C 67% 2.0 mph SSW3.2 kmh SSW -- 30.17 in1021.7 mb 0.00 in0.0 mm 0.00 in0.0 mm 0.06 in1.5 mm
07:05 PM 90.9°F32.7°C 79.3°F26.3°C 69% 1.0 mph W1.6 kmh W -- 30.17 in1021.7 mb 0.00 in0.0 mm 0.00 in0.0 mm 0.06 in1.5 mm
07:10 PM 91.4°F33.0°C 79.8°F26.6°C 69% Calm Calm -- 30.18 in1022.0 mb 0.00 in0.0 mm 0.00 in0.0 mm 0.06 in1.5 mm
07:15 PM 91.0°F32.8°C 79.1°F26.2°C 68% 2.0 mph SW3.2 kmh SW -- 30.18 in1022.0 mb 0.00 in0.0 mm 0.00 in0.0 mm 0.06 in1.5 mm
07:20 PM 91.2°F32.9°C 78.8°F26.0°C 67% 2.0 mph W3.2 kmh W -- 30.18 in1022.0 mb 0.00 in0.0 mm 0.00 in0.0 mm 0.06 in1.5 mm
07:25 PM 91.0°F32.8°C 78.1°F25.6°C 66% 2.0 mph SSW3.2 kmh SSW -- 30.18 in1022.0 mb 0.00 in0.0 mm 0.00 in0.0 mm 0.06 in1.5 mm
07:30 PM 91.2°F32.9°C 78.3°F25.7°C 66% 1.0 mph WSW1.6 kmh WSW -- 30.18 in1022.0 mb 0.00 in0.0 mm 0.00 in0.0 mm 0.06 in1.5 mm
07:35 PM 91.0°F32.8°C 78.6°F25.9°C 67% 1.0 mph WSW1.6 kmh WSW -- 30.18 in1022.0 mb 0.00 in0.0 mm 0.00 in0.0 mm 0.06 in1.5 mm
07:40 PM 91.4°F33.0°C 78.9°F26.1°C 67% Calm Calm -- 30.18 in1022.0 mb 0.00 in0.0 mm 0.00 in0.0 mm 0.06 in1.5 mm
07:45 PM 90.5°F32.5°C 78.5°F25.8°C 68% 1.0 mph W1.6 kmh W -- 30.18 in1022.0 mb 0.00 in0.0 mm 0.00 in0.0 mm 0.06 in1.5 mm
07:50 PM 90.7°F32.6°C 78.7°F25.9°C 68% Calm Calm -- 30.18 in1022.0 mb 0.00 in0.0 mm 0.00 in0.0 mm 0.06 in1.5 mm
07:55 PM 90.3°F32.4°C 78.4°F25.8°C 68% Calm Calm -- 30.18 in1022.0 mb 0.00 in0.0 mm 0.00 in0.0 mm 0.06 in1.5 mm
08:00 PM 90.1°F32.3°C 78.6°F25.9°C 69% 1.0 mph SW1.6 kmh SW -- 30.18 in1022.0 mb 0.00 in0.0 mm 0.00 in0.0 mm 0.06 in1.5 mm
08:05 PM 90.1°F32.3°C 79.1°F26.2°C 70% Calm Calm -- 30.18 in1022.0 mb 0.00 in0.0 mm 0.00 in0.0 mm 0.06 in1.5 mm
08:10 PM 90.1°F32.3°C 78.6°F25.9°C 69% Calm Calm -- 30.18 in1022.0 mb 0.00 in0.0 mm 0.00 in0.0 mm 0.06 in1.5 mm
08:15 PM 89.2°F31.8°C 78.6°F25.9°C 71% Calm Calm -- 30.18 in1022.0 mb 0.00 in0.0 mm 0.00 in0.0 mm 0.06 in1.5 mm
08:20 PM 88.5°F31.4°C 78.4°F25.8°C 72% 2.0 mph SW3.2 kmh SW -- 30.18 in1022.0 mb 0.00 in0.0 mm 0.00 in0.0 mm 0.06 in1.5 mm
08:25 PM 88.5°F31.4°C 78.8°F26.0°C 73% Calm Calm -- 30.18 in1022.0 mb 0.00 in0.0 mm 0.00 in0.0 mm 0.06 in1.5 mm
08:30 PM 88.3°F31.3°C 78.6°F25.9°C 73% Calm Calm -- 30.18 in1022.0 mb 0.00 in0.0 mm 0.00 in0.0 mm 0.06 in1.5 mm
08:35 PM 88.0°F31.1°C 78.3°F25.7°C 73% Calm Calm -- 30.18 in1022.0 mb 0.00 in0.0 mm 0.00 in0.0 mm 0.06 in1.5 mm
08:40 PM 87.8°F31.0°C 78.1°F25.6°C 73% Calm Calm -- 30.18 in1022.0 mb 0.00 in0.0 mm 0.00 in0.0 mm 0.06 in1.5 mm
08:45 PM 87.6°F30.9°C 77.9°F25.5°C 73% Calm Calm -- 30.18 in1022.0 mb 0.00 in0.0 mm 0.00 in0.0 mm 0.06 in1.5 mm
08:50 PM 86.9°F30.5°C 78.4°F25.8°C 76% Calm Calm -- 30.18 in1022.0 mb 0.00 in0.0 mm 0.00 in0.0 mm 0.06 in1.5 mm
08:55 PM 87.1°F30.6°C 78.2°F25.7°C 75% Calm Calm -- 30.19 in1022.4 mb 0.00 in0.0 mm 0.00 in0.0 mm 0.06 in1.5 mm
09:00 PM 86.5°F30.3°C 78.9°F26.1°C 78% Calm Calm -- 30.18 in1022.0 mb 0.00 in0.0 mm 0.00 in0.0 mm 0.06 in1.5 mm
09:05 PM 85.8°F29.9°C 78.6°F25.9°C 79% Calm Calm -- 30.18 in1022.0 mb 0.00 in0.0 mm 0.00 in0.0 mm 0.06 in1.5 mm
09:10 PM 85.8°F29.9°C 78.6°F25.9°C 79% 1.0 mph SSW1.6 kmh SSW -- 30.19 in1022.4 mb 0.00 in0.0 mm 0.00 in0.0 mm 0.06 in1.5 mm
09:15 PM 85.5°F29.7°C 78.6°F25.9°C 80% Calm Calm -- 30.19 in1022.4 mb 0.00 in0.0 mm 0.00 in0.0 mm 0.06 in1.5 mm
09:20 PM 85.3°F29.6°C 78.4°F25.8°C 80% Calm Calm -- 30.19 in1022.4 mb 0.00 in0.0 mm 0.00 in0.0 mm 0.06 in1.5 mm
09:25 PM 85.3°F29.6°C 78.8°F26.0°C 81% Calm Calm -- 30.19 in1022.4 mb 0.00 in0.0 mm 0.00 in0.0 mm 0.06 in1.5 mm
09:30 PM 85.1°F29.5°C 78.6°F25.9°C 81% Calm Calm -- 30.19 in1022.4 mb 0.00 in0.0 mm 0.00 in0.0 mm 0.06 in1.5 mm
09:35 PM 84.9°F29.4°C 78.1°F25.6°C 80% Calm Calm -- 30.19 in1022.4 mb 0.00 in0.0 mm 0.00 in0.0 mm 0.06 in1.5 mm
09:40 PM 84.4°F29.1°C 78.3°F25.7°C 82% Calm Calm -- 30.19 in1022.4 mb 0.00 in0.0 mm 0.00 in0.0 mm 0.06 in1.5 mm
09:45 PM 84.2°F29.0°C 78.5°F25.8°C 83% Calm Calm -- 30.19 in1022.4 mb 0.00 in0.0 mm 0.00 in0.0 mm 0.06 in1.5 mm
09:50 PM 84.2°F29.0°C 78.1°F25.6°C 82% Calm Calm -- 30.19 in1022.4 mb 0.00 in0.0 mm 0.00 in0.0 mm 0.06 in1.5 mm
09:55 PM 83.5°F28.6°C 78.1°F25.6°C 84% Calm Calm -- 30.19 in1022.4 mb 0.00 in0.0 mm 0.00 in0.0 mm 0.06 in1.5 mm
10:00 PM 83.7°F28.7°C 77.9°F25.5°C 83% Calm Calm -- 30.20 in1022.7 mb 0.00 in0.0 mm 0.00 in0.0 mm 0.06 in1.5 mm
10:05 PM 83.3°F28.5°C 77.6°F25.3°C 83% Calm Calm -- 30.19 in1022.4 mb 0.00 in0.0 mm 0.00 in0.0 mm 0.06 in1.5 mm
10:10 PM 83.5°F28.6°C 77.8°F25.4°C 83% Calm Calm -- 30.19 in1022.4 mb 0.00 in0.0 mm 0.00 in0.0 mm 0.06 in1.5 mm
10:15 PM 83.3°F28.5°C 78.0°F25.6°C 84% Calm Calm -- 30.20 in1022.7 mb 0.00 in0.0 mm 0.00 in0.0 mm 0.06 in1.5 mm
10:25 PM 83.1°F28.4°C 77.8°F25.4°C 84% Calm Calm -- 30.20 in1022.7 mb 0.00 in0.0 mm 0.00 in0.0 mm 0.06 in1.5 mm
10:35 PM 82.8°F28.2°C 77.4°F25.2°C 84% Calm Calm -- 30.20 in1022.7 mb 0.00 in0.0 mm 0.00 in0.0 mm 0.06 in1.5 mm
10:40 PM 82.9°F28.3°C 77.2°F25.1°C 83% Calm Calm -- 30.20 in1022.7 mb 0.00 in0.0 mm 0.00 in0.0 mm 0.06 in1.5 mm
10:45 PM 82.6°F28.1°C 77.6°F25.3°C 85% Calm Calm -- 30.20 in1022.7 mb 0.00 in0.0 mm 0.00 in0.0 mm 0.06 in1.5 mm
10:50 PM 82.4°F28.0°C 77.4°F25.2°C 85% Calm Calm -- 30.20 in1022.7 mb 0.00 in0.0 mm 0.00 in0.0 mm 0.06 in1.5 mm
10:55 PM 82.4°F28.0°C 77.1°F25.1°C 84% Calm Calm -- 30.20 in1022.7 mb 0.00 in0.0 mm 0.00 in0.0 mm 0.06 in1.5 mm
11:00 PM 82.4°F28.0°C 77.4°F25.2°C 85% Calm Calm -- 30.20 in1022.7 mb 0.00 in0.0 mm 0.00 in0.0 mm 0.06 in1.5 mm
11:05 PM 81.9°F27.7°C 77.3°F25.2°C 86% Calm Calm -- 30.20 in1022.7 mb 0.00 in0.0 mm 0.00 in0.0 mm 0.06 in1.5 mm
11:10 PM 81.5°F27.5°C 77.3°F25.2°C 87% Calm Calm -- 30.21 in1023.0 mb 0.00 in0.0 mm 0.00 in0.0 mm 0.06 in1.5 mm
11:15 PM 81.7°F27.6°C 77.4°F25.2°C 87% Calm Calm -- 30.21 in1023.0 mb 0.00 in0.0 mm 0.00 in0.0 mm 0.06 in1.5 mm
11:25 PM 81.3°F27.4°C 77.1°F25.1°C 87% Calm Calm -- 30.21 in1023.0 mb 0.00 in0.0 mm 0.00 in0.0 mm 0.06 in1.5 mm
11:30 PM 81.0°F27.2°C 76.7°F24.8°C 87% Calm Calm -- 30.21 in1023.0 mb 0.00 in0.0 mm 0.00 in0.0 mm 0.06 in1.5 mm
11:35 PM 81.1°F27.3°C 77.2°F25.1°C 88% Calm Calm -- 30.21 in1023.0 mb 0.00 in0.0 mm 0.00 in0.0 mm 0.06 in1.5 mm
11:40 PM 81.3°F27.4°C 77.1°F25.1°C 87% Calm Calm -- 30.21 in1023.0 mb 0.00 in0.0 mm 0.00 in0.0 mm 0.06 in1.5 mm
11:45 PM 81.1°F27.3°C 76.9°F24.9°C 87% Calm Calm -- 30.21 in1023.0 mb 0.00 in0.0 mm 0.00 in0.0 mm 0.06 in1.5 mm